sensor_id;sensor_type;location;lat;lon;timestamp;P1;durP1;ratioP1;P2;durP2;ratioP2
21305;SDS011;10812;51.838;5.838;2022-09-27T00:01:07;11.53;;;1.80;;
21305;SDS011;10812;51.838;5.838;2022-09-27T00:03:37;4.93;;;1.40;;
21305;SDS011;10812;51.838;5.838;2022-09-27T00:06:06;5.60;;;1.37;;
21305;SDS011;10812;51.838;5.838;2022-09-27T00:08:37;5.93;;;1.40;;
21305;SDS011;10812;51.838;5.838;2022-09-27T00:11:05;3.00;;;1.07;;
21305;SDS011;10812;51.838;5.838;2022-09-27T00:13:41;4.10;;;1.20;;
21305;SDS011;10812;51.838;5.838;2022-09-27T00:16:11;4.50;;;1.40;;
21305;SDS011;10812;51.838;5.838;2022-09-27T00:18:39;4.83;;;1.00;;
21305;SDS011;10812;51.838;5.838;2022-09-27T00:21:08;2.17;;;1.13;;
21305;SDS011;10812;51.838;5.838;2022-09-27T00:23:37;5.20;;;1.53;;
21305;SDS011;10812;51.838;5.838;2022-09-27T00:26:06;3.37;;;1.07;;
21305;SDS011;10812;51.838;5.838;2022-09-27T00:28:36;3.30;;;0.97;;
21305;SDS011;10812;51.838;5.838;2022-09-27T00:31:11;3.57;;;1.53;;
21305;SDS011;10812;51.838;5.838;2022-09-27T00:33:46;3.23;;;1.03;;
21305;SDS011;10812;51.838;5.838;2022-09-27T00:36:17;6.03;;;1.40;;
21305;SDS011;10812;51.838;5.838;2022-09-27T00:38:46;7.00;;;1.37;;
21305;SDS011;10812;51.838;5.838;2022-09-27T00:41:15;5.13;;;1.10;;
21305;SDS011;10812;51.838;5.838;2022-09-27T00:43:45;6.63;;;1.33;;
21305;SDS011;10812;51.838;5.838;2022-09-27T00:46:19;3.20;;;1.27;;
21305;SDS011;10812;51.838;5.838;2022-09-27T00:48:55;4.50;;;1.60;;
21305;SDS011;10812;51.838;5.838;2022-09-27T00:51:28;7.37;;;1.03;;
21305;SDS011;10812;51.838;5.838;2022-09-27T00:53:58;8.37;;;1.50;;
21305;SDS011;10812;51.838;5.838;2022-09-27T00:56:28;4.83;;;1.40;;
21305;SDS011;10812;51.838;5.838;2022-09-27T00:58:59;5.67;;;1.40;;
21305;SDS011;10812;51.838;5.838;2022-09-27T01:01:34;4.27;;;1.23;;
21305;SDS011;10812;51.838;5.838;2022-09-27T01:04:03;4.07;;;1.17;;
21305;SDS011;10812;51.838;5.838;2022-09-27T01:06:34;5.07;;;1.60;;
21305;SDS011;10812;51.838;5.838;2022-09-27T01:09:03;1.83;;;1.20;;
21305;SDS011;10812;51.838;5.838;2022-09-27T01:11:37;7.50;;;1.63;;
21305;SDS011;10812;51.838;5.838;2022-09-27T01:14:12;3.93;;;1.60;;
21305;SDS011;10812;51.838;5.838;2022-09-27T01:16:54;4.57;;;1.13;;
21305;SDS011;10812;51.838;5.838;2022-09-27T01:19:35;2.20;;;1.10;;
21305;SDS011;10812;51.838;5.838;2022-09-27T01:22:22;6.00;;;1.50;;
21305;SDS011;10812;51.838;5.838;2022-09-27T01:24:55;3.57;;;1.83;;
21305;SDS011;10812;51.838;5.838;2022-09-27T01:27:58;1.60;;;0.90;;
21305;SDS011;10812;51.838;5.838;2022-09-27T01:30:44;2.70;;;1.00;;
21305;SDS011;10812;51.838;5.838;2022-09-27T01:33:23;3.80;;;1.20;;
21305;SDS011;10812;51.838;5.838;2022-09-27T01:36:04;2.37;;;0.87;;
21305;SDS011;10812;51.838;5.838;2022-09-27T01:38:50;2.77;;;0.90;;
21305;SDS011;10812;51.838;5.838;2022-09-27T01:41:31;4.07;;;1.17;;
21305;SDS011;10812;51.838;5.838;2022-09-27T01:44:03;3.73;;;1.20;;
21305;SDS011;10812;51.838;5.838;2022-09-27T01:46:38;3.40;;;1.13;;
21305;SDS011;10812;51.838;5.838;2022-09-27T01:49:10;1.67;;;0.80;;
21305;SDS011;10812;51.838;5.838;2022-09-27T01:51:43;3.13;;;0.90;;
21305;SDS011;10812;51.838;5.838;2022-09-27T01:54:15;4.13;;;0.97;;
21305;SDS011;10812;51.838;5.838;2022-09-27T01:56:49;4.93;;;1.10;;
21305;SDS011;10812;51.838;5.838;2022-09-27T01:59:21;4.60;;;0.97;;
21305;SDS011;10812;51.838;5.838;2022-09-27T02:01:56;2.30;;;0.90;;
21305;SDS011;10812;51.838;5.838;2022-09-27T02:04:29;3.57;;;1.20;;
21305;SDS011;10812;51.838;5.838;2022-09-27T02:07:00;3.07;;;0.93;;
21305;SDS011;10812;51.838;5.838;2022-09-27T02:09:34;3.47;;;1.13;;
21305;SDS011;10812;51.838;5.838;2022-09-27T02:12:07;7.13;;;1.43;;
21305;SDS011;10812;51.838;5.838;2022-09-27T02:14:40;4.10;;;0.90;;
21305;SDS011;10812;51.838;5.838;2022-09-27T02:17:15;2.97;;;0.90;;
21305;SDS011;10812;51.838;5.838;2022-09-27T02:19:52;4.00;;;1.03;;
21305;SDS011;10812;51.838;5.838;2022-09-27T02:22:30;2.67;;;1.00;;
21305;SDS011;10812;51.838;5.838;2022-09-27T02:25:04;4.57;;;0.90;;
21305;SDS011;10812;51.838;5.838;2022-09-27T02:27:41;6.90;;;1.43;;
21305;SDS011;10812;51.838;5.838;2022-09-27T02:30:16;2.80;;;0.90;;
21305;SDS011;10812;51.838;5.838;2022-09-27T02:32:46;4.77;;;1.30;;
21305;SDS011;10812;51.838;5.838;2022-09-27T02:35:14;2.73;;;1.00;;
21305;SDS011;10812;51.838;5.838;2022-09-27T02:37:46;4.23;;;1.10;;
21305;SDS011;10812;51.838;5.838;2022-09-27T02:40:14;3.07;;;0.97;;
21305;SDS011;10812;51.838;5.838;2022-09-27T02:42:42;3.50;;;0.80;;
21305;SDS011;10812;51.838;5.838;2022-09-27T02:45:11;3.33;;;1.03;;
21305;SDS011;10812;51.838;5.838;2022-09-27T02:47:48;3.73;;;1.10;;
21305;SDS011;10812;51.838;5.838;2022-09-27T02:50:30;5.03;;;1.23;;
21305;SDS011;10812;51.838;5.838;2022-09-27T02:53:09;4.00;;;0.63;;
21305;SDS011;10812;51.838;5.838;2022-09-27T02:55:45;2.20;;;0.87;;
21305;SDS011;10812;51.838;5.838;2022-09-27T02:58:22;5.63;;;1.30;;
21305;SDS011;10812;51.838;5.838;2022-09-27T03:06:20;3.50;;;1.00;;
21305;SDS011;10812;51.838;5.838;2022-09-27T03:08:50;6.13;;;1.03;;
21305;SDS011;10812;51.838;5.838;2022-09-27T03:11:18;3.00;;;1.57;;
21305;SDS011;10812;51.838;5.838;2022-09-27T03:13:46;3.77;;;1.00;;
21305;SDS011;10812;51.838;5.838;2022-09-27T03:16:34;3.00;;;1.10;;
21305;SDS011;10812;51.838;5.838;2022-09-27T03:19:02;2.93;;;1.10;;
21305;SDS011;10812;51.838;5.838;2022-09-27T03:21:31;5.67;;;1.40;;
21305;SDS011;10812;51.838;5.838;2022-09-27T03:24:00;6.27;;;1.80;;
21305;SDS011;10812;51.838;5.838;2022-09-27T03:26:28;6.10;;;1.07;;
21305;SDS011;10812;51.838;5.838;2022-09-27T03:28:56;3.77;;;1.27;;
21305;SDS011;10812;51.838;5.838;2022-09-27T03:31:24;2.40;;;1.20;;
21305;SDS011;10812;51.838;5.838;2022-09-27T03:33:52;5.53;;;1.10;;
21305;SDS011;10812;51.838;5.838;2022-09-27T03:36:21;4.30;;;1.30;;
21305;SDS011;10812;51.838;5.838;2022-09-27T03:38:50;5.17;;;1.00;;
21305;SDS011;10812;51.838;5.838;2022-09-27T03:41:18;4.43;;;1.10;;
21305;SDS011;10812;51.838;5.838;2022-09-27T03:43:46;4.27;;;1.13;;
21305;SDS011;10812;51.838;5.838;2022-09-27T03:46:15;4.77;;;1.30;;
21305;SDS011;10812;51.838;5.838;2022-09-27T03:48:43;2.27;;;1.00;;
21305;SDS011;10812;51.838;5.838;2022-09-27T03:51:11;6.00;;;1.50;;
21305;SDS011;10812;51.838;5.838;2022-09-27T03:53:39;4.33;;;1.03;;
21305;SDS011;10812;51.838;5.838;2022-09-27T03:56:09;3.57;;;1.10;;
21305;SDS011;10812;51.838;5.838;2022-09-27T03:58:37;4.40;;;1.37;;
21305;SDS011;10812;51.838;5.838;2022-09-27T04:01:05;7.60;;;1.40;;
21305;SDS011;10812;51.838;5.838;2022-09-27T04:03:33;9.83;;;1.30;;
21305;SDS011;10812;51.838;5.838;2022-09-27T04:06:03;3.93;;;1.50;;
21305;SDS011;10812;51.838;5.838;2022-09-27T04:08:31;5.50;;;1.53;;
21305;SDS011;10812;51.838;5.838;2022-09-27T04:11:00;5.60;;;1.17;;
21305;SDS011;10812;51.838;5.838;2022-09-27T04:13:30;4.93;;;1.23;;
21305;SDS011;10812;51.838;5.838;2022-09-27T04:15:58;5.03;;;1.27;;
21305;SDS011;10812;51.838;5.838;2022-09-27T04:18:28;3.87;;;1.00;;
21305;SDS011;10812;51.838;5.838;2022-09-27T04:20:56;6.53;;;1.30;;
21305;SDS011;10812;51.838;5.838;2022-09-27T04:23:24;5.17;;;1.77;;
21305;SDS011;10812;51.838;5.838;2022-09-27T04:25:55;8.23;;;1.43;;
21305;SDS011;10812;51.838;5.838;2022-09-27T04:28:23;5.50;;;1.40;;
21305;SDS011;10812;51.838;5.838;2022-09-27T04:30:54;5.00;;;1.17;;
21305;SDS011;10812;51.838;5.838;2022-09-27T04:33:22;6.73;;;1.50;;
21305;SDS011;10812;51.838;5.838;2022-09-27T04:35:51;7.10;;;1.47;;
21305;SDS011;10812;51.838;5.838;2022-09-27T04:38:36;7.87;;;1.67;;
21305;SDS011;10812;51.838;5.838;2022-09-27T04:41:05;4.17;;;1.40;;
21305;SDS011;10812;51.838;5.838;2022-09-27T04:43:33;6.43;;;1.60;;
21305;SDS011;10812;51.838;5.838;2022-09-27T04:46:02;4.90;;;1.00;;
21305;SDS011;10812;51.838;5.838;2022-09-27T04:48:30;3.27;;;1.17;;
21305;SDS011;10812;51.838;5.838;2022-09-27T04:50:59;5.83;;;1.10;;
21305;SDS011;10812;51.838;5.838;2022-09-27T04:53:28;4.13;;;1.03;;
21305;SDS011;10812;51.838;5.838;2022-09-27T04:55:57;4.50;;;1.00;;
21305;SDS011;10812;51.838;5.838;2022-09-27T04:58:26;4.33;;;0.90;;
21305;SDS011;10812;51.838;5.838;2022-09-27T05:00:55;6.03;;;1.30;;
21305;SDS011;10812;51.838;5.838;2022-09-27T05:03:24;4.17;;;0.60;;
21305;SDS011;10812;51.838;5.838;2022-09-27T05:05:53;4.13;;;1.00;;
21305;SDS011;10812;51.838;5.838;2022-09-27T05:08:21;2.27;;;0.67;;
21305;SDS011;10812;51.838;5.838;2022-09-27T05:10:50;2.50;;;0.97;;
21305;SDS011;10812;51.838;5.838;2022-09-27T05:13:18;2.63;;;0.47;;
21305;SDS011;10812;51.838;5.838;2022-09-27T05:15:46;5.23;;;0.73;;
21305;SDS011;10812;51.838;5.838;2022-09-27T05:18:14;1.00;;;0.60;;
21305;SDS011;10812;51.838;5.838;2022-09-27T05:20:44;1.80;;;0.70;;
21305;SDS011;10812;51.838;5.838;2022-09-27T05:23:13;1.77;;;1.00;;
21305;SDS011;10812;51.838;5.838;2022-09-27T05:25:41;3.73;;;1.50;;
21305;SDS011;10812;51.838;5.838;2022-09-27T05:28:09;2.27;;;0.70;;
21305;SDS011;10812;51.838;5.838;2022-09-27T05:30:37;2.93;;;0.93;;
21305;SDS011;10812;51.838;5.838;2022-09-27T05:33:05;3.07;;;1.03;;
21305;SDS011;10812;51.838;5.838;2022-09-27T05:35:33;4.57;;;1.53;;
21305;SDS011;10812;51.838;5.838;2022-09-27T05:38:03;2.67;;;0.97;;
21305;SDS011;10812;51.838;5.838;2022-09-27T05:40:31;3.03;;;0.87;;
21305;SDS011;10812;51.838;5.838;2022-09-27T05:43:07;1.83;;;0.93;;
21305;SDS011;10812;51.838;5.838;2022-09-27T05:45:35;2.63;;;0.97;;
21305;SDS011;10812;51.838;5.838;2022-09-27T05:48:03;5.27;;;1.07;;
21305;SDS011;10812;51.838;5.838;2022-09-27T05:50:32;1.03;;;0.73;;
21305;SDS011;10812;51.838;5.838;2022-09-27T05:53:00;4.30;;;0.90;;
21305;SDS011;10812;51.838;5.838;2022-09-27T05:55:29;3.93;;;0.83;;
21305;SDS011;10812;51.838;5.838;2022-09-27T05:57:58;1.93;;;0.70;;
21305;SDS011;10812;51.838;5.838;2022-09-27T06:00:27;1.10;;;0.50;;
21305;SDS011;10812;51.838;5.838;2022-09-27T06:02:57;1.80;;;0.80;;
21305;SDS011;10812;51.838;5.838;2022-09-27T06:09:27;1.43;;;0.60;;
21305;SDS011;10812;51.838;5.838;2022-09-27T06:11:57;1.20;;;0.83;;
21305;SDS011;10812;51.838;5.838;2022-09-27T06:14:25;1.60;;;0.60;;
21305;SDS011;10812;51.838;5.838;2022-09-27T06:16:53;1.07;;;0.57;;
21305;SDS011;10812;51.838;5.838;2022-09-27T06:19:21;2.33;;;0.83;;
21305;SDS011;10812;51.838;5.838;2022-09-27T06:21:49;4.13;;;0.63;;
21305;SDS011;10812;51.838;5.838;2022-09-27T06:24:17;0.60;;;0.50;;
21305;SDS011;10812;51.838;5.838;2022-09-27T06:26:45;3.10;;;0.80;;
21305;SDS011;10812;51.838;5.838;2022-09-27T06:29:15;2.10;;;0.60;;
21305;SDS011;10812;51.838;5.838;2022-09-27T06:31:43;1.47;;;0.70;;
21305;SDS011;10812;51.838;5.838;2022-09-27T06:34:11;1.33;;;0.70;;
21305;SDS011;10812;51.838;5.838;2022-09-27T06:36:39;0.70;;;0.50;;
21305;SDS011;10812;51.838;5.838;2022-09-27T06:39:09;1.37;;;0.70;;
21305;SDS011;10812;51.838;5.838;2022-09-27T06:41:37;1.50;;;0.53;;
21305;SDS011;10812;51.838;5.838;2022-09-27T06:44:06;2.47;;;0.60;;
21305;SDS011;10812;51.838;5.838;2022-09-27T06:46:35;4.27;;;0.73;;
21305;SDS011;10812;51.838;5.838;2022-09-27T06:49:05;1.00;;;0.57;;
21305;SDS011;10812;51.838;5.838;2022-09-27T06:51:34;0.87;;;0.60;;
21305;SDS011;10812;51.838;5.838;2022-09-27T06:54:02;1.53;;;0.87;;
21305;SDS011;10812;51.838;5.838;2022-09-27T06:56:30;1.50;;;0.50;;
21305;SDS011;10812;51.838;5.838;2022-09-27T06:58:58;4.40;;;1.13;;
21305;SDS011;10812;51.838;5.838;2022-09-27T07:01:45;0.87;;;0.60;;
21305;SDS011;10812;51.838;5.838;2022-09-27T07:04:13;1.20;;;0.60;;
21305;SDS011;10812;51.838;5.838;2022-09-27T07:06:41;5.10;;;0.97;;
21305;SDS011;10812;51.838;5.838;2022-09-27T07:09:09;0.67;;;0.40;;
21305;SDS011;10812;51.838;5.838;2022-09-27T07:11:37;1.27;;;0.70;;
21305;SDS011;10812;51.838;5.838;2022-09-27T07:14:07;0.52;;;0.50;;
21305;SDS011;10812;51.838;5.838;2022-09-27T07:16:36;1.17;;;0.77;;
21305;SDS011;10812;51.838;5.838;2022-09-27T07:19:05;1.00;;;0.43;;
21305;SDS011;10812;51.838;5.838;2022-09-27T07:21:36;3.00;;;0.60;;
21305;SDS011;10812;51.838;5.838;2022-09-27T07:24:05;1.20;;;0.40;;
21305;SDS011;10812;51.838;5.838;2022-09-27T07:26:33;1.13;;;0.60;;
21305;SDS011;10812;51.838;5.838;2022-09-27T07:29:01;1.20;;;0.63;;
21305;SDS011;10812;51.838;5.838;2022-09-27T07:31:29;0.63;;;0.33;;
21305;SDS011;10812;51.838;5.838;2022-09-27T07:33:57;0.83;;;0.37;;
21305;SDS011;10812;51.838;5.838;2022-09-27T07:36:26;2.80;;;0.90;;
21305;SDS011;10812;51.838;5.838;2022-09-27T07:38:57;1.80;;;0.60;;
21305;SDS011;10812;51.838;5.838;2022-09-27T07:41:25;3.40;;;1.23;;
21305;SDS011;10812;51.838;5.838;2022-09-27T07:43:53;2.67;;;0.50;;
21305;SDS011;10812;51.838;5.838;2022-09-27T07:46:22;1.70;;;0.63;;
21305;SDS011;10812;51.838;5.838;2022-09-27T07:48:50;2.53;;;0.57;;
21305;SDS011;10812;51.838;5.838;2022-09-27T07:51:18;1.43;;;0.53;;
21305;SDS011;10812;51.838;5.838;2022-09-27T07:53:48;1.70;;;0.77;;
21305;SDS011;10812;51.838;5.838;2022-09-27T07:56:16;1.80;;;0.70;;
21305;SDS011;10812;51.838;5.838;2022-09-27T07:58:44;2.67;;;0.60;;
21305;SDS011;10812;51.838;5.838;2022-09-27T08:01:12;1.77;;;0.50;;
21305;SDS011;10812;51.838;5.838;2022-09-27T08:03:41;2.13;;;0.73;;
21305;SDS011;10812;51.838;5.838;2022-09-27T08:06:09;1.53;;;0.60;;
21305;SDS011;10812;51.838;5.838;2022-09-27T08:08:38;0.67;;;0.67;;
21305;SDS011;10812;51.838;5.838;2022-09-27T08:11:11;0.97;;;0.60;;
21305;SDS011;10812;51.838;5.838;2022-09-27T08:13:40;3.00;;;0.53;;
21305;SDS011;10812;51.838;5.838;2022-09-27T08:16:09;1.00;;;0.87;;
21305;SDS011;10812;51.838;5.838;2022-09-27T08:18:37;2.07;;;0.70;;
21305;SDS011;10812;51.838;5.838;2022-09-27T08:21:05;1.90;;;0.80;;
21305;SDS011;10812;51.838;5.838;2022-09-27T08:23:33;2.63;;;1.20;;
21305;SDS011;10812;51.838;5.838;2022-09-27T08:26:02;3.97;;;0.90;;
21305;SDS011;10812;51.838;5.838;2022-09-27T08:39:21;3.13;;;1.20;;
21305;SDS011;10812;51.838;5.838;2022-09-27T08:41:49;1.33;;;1.20;;
21305;SDS011;10812;51.838;5.838;2022-09-27T08:44:23;2.23;;;1.10;;
21305;SDS011;10812;51.838;5.838;2022-09-27T08:47:01;3.33;;;1.57;;
21305;SDS011;10812;51.838;5.838;2022-09-27T08:49:38;2.37;;;1.53;;
21305;SDS011;10812;51.838;5.838;2022-09-27T08:52:13;3.80;;;1.70;;
21305;SDS011;10812;51.838;5.838;2022-09-27T08:54:46;2.73;;;1.50;;
21305;SDS011;10812;51.838;5.838;2022-09-27T08:57:16;1.90;;;1.70;;
21305;SDS011;10812;51.838;5.838;2022-09-27T08:59:46;4.43;;;2.40;;
21305;SDS011;10812;51.838;5.838;2022-09-27T09:02:20;2.87;;;2.10;;
21305;SDS011;10812;51.838;5.838;2022-09-27T09:04:52;2.50;;;2.30;;
21305;SDS011;10812;51.838;5.838;2022-09-27T09:07:29;4.83;;;2.43;;
21305;SDS011;10812;51.838;5.838;2022-09-27T09:10:09;2.57;;;2.30;;
21305;SDS011;10812;51.838;5.838;2022-09-27T09:13:06;2.60;;;2.40;;
21305;SDS011;10812;51.838;5.838;2022-09-27T09:15:44;5.87;;;3.13;;
21305;SDS011;10812;51.838;5.838;2022-09-27T09:18:26;4.73;;;2.60;;
21305;SDS011;10812;51.838;5.838;2022-09-27T09:21:03;3.17;;;2.73;;
21305;SDS011;10812;51.838;5.838;2022-09-27T09:23:55;3.50;;;2.87;;
21305;SDS011;10812;51.838;5.838;2022-09-27T09:26:37;3.23;;;2.80;;
21305;SDS011;10812;51.838;5.838;2022-09-27T09:29:13;2.83;;;2.33;;
21305;SDS011;10812;51.838;5.838;2022-09-27T09:31:53;3.87;;;2.83;;
21305;SDS011;10812;51.838;5.838;2022-09-27T09:34:30;2.53;;;2.33;;
21305;SDS011;10812;51.838;5.838;2022-09-27T09:37:02;3.77;;;2.70;;
21305;SDS011;10812;51.838;5.838;2022-09-27T09:39:40;3.17;;;2.87;;
21305;SDS011;10812;51.838;5.838;2022-09-27T09:42:12;5.60;;;3.03;;
21305;SDS011;10812;51.838;5.838;2022-09-27T09:44:46;5.73;;;3.70;;
21305;SDS011;10812;51.838;5.838;2022-09-27T09:47:23;4.67;;;3.10;;
21305;SDS011;10812;51.838;5.838;2022-09-27T09:49:57;5.47;;;3.27;;
21305;SDS011;10812;51.838;5.838;2022-09-27T09:52:35;4.23;;;2.40;;
21305;SDS011;10812;51.838;5.838;2022-09-27T09:55:12;3.33;;;2.40;;
21305;SDS011;10812;51.838;5.838;2022-09-27T09:57:51;5.37;;;2.57;;
21305;SDS011;10812;51.838;5.838;2022-09-27T10:00:26;4.73;;;3.13;;
21305;SDS011;10812;51.838;5.838;2022-09-27T10:02:55;2.80;;;2.20;;
21305;SDS011;10812;51.838;5.838;2022-09-27T10:05:26;3.90;;;1.80;;
21305;SDS011;10812;51.838;5.838;2022-09-27T10:07:56;1.83;;;1.37;;
21305;SDS011;10812;51.838;5.838;2022-09-27T10:10:27;2.00;;;1.70;;
21305;SDS011;10812;51.838;5.838;2022-09-27T10:12:56;1.50;;;1.40;;
21305;SDS011;10812;51.838;5.838;2022-09-27T10:15:25;1.60;;;1.27;;
21305;SDS011;10812;51.838;5.838;2022-09-27T10:17:56;2.93;;;1.80;;
21305;SDS011;10812;51.838;5.838;2022-09-27T10:20:29;2.80;;;1.43;;
21305;SDS011;10812;51.838;5.838;2022-09-27T10:23:03;1.70;;;1.50;;
21305;SDS011;10812;51.838;5.838;2022-09-27T10:25:49;3.27;;;1.60;;
21305;SDS011;10812;51.838;5.838;2022-09-27T10:28:29;2.67;;;1.90;;
21305;SDS011;10812;51.838;5.838;2022-09-27T10:31:03;4.43;;;2.20;;
21305;SDS011;10812;51.838;5.838;2022-09-27T10:33:33;3.63;;;2.10;;
21305;SDS011;10812;51.838;5.838;2022-09-27T10:36:03;2.60;;;1.97;;
21305;SDS011;10812;51.838;5.838;2022-09-27T10:38:50;2.50;;;1.70;;
21305;SDS011;10812;51.838;5.838;2022-09-27T10:41:25;7.70;;;2.07;;
21305;SDS011;10812;51.838;5.838;2022-09-27T10:44:12;3.50;;;1.93;;
21305;SDS011;10812;51.838;5.838;2022-09-27T10:46:47;2.57;;;1.67;;
21305;SDS011;10812;51.838;5.838;2022-09-27T10:49:17;5.03;;;1.50;;
21305;SDS011;10812;51.838;5.838;2022-09-27T10:51:48;3.10;;;1.80;;
21305;SDS011;10812;51.838;5.838;2022-09-27T10:54:19;2.07;;;1.23;;
21305;SDS011;10812;51.838;5.838;2022-09-27T10:56:54;1.57;;;1.20;;
21305;SDS011;10812;51.838;5.838;2022-09-27T10:59:24;2.10;;;1.10;;
21305;SDS011;10812;51.838;5.838;2022-09-27T11:01:55;2.90;;;1.00;;
21305;SDS011;10812;51.838;5.838;2022-09-27T11:04:27;1.37;;;0.90;;
21305;SDS011;10812;51.838;5.838;2022-09-27T11:07:07;2.40;;;1.30;;
21305;SDS011;10812;51.838;5.838;2022-09-27T11:09:44;2.13;;;0.87;;
21305;SDS011;10812;51.838;5.838;2022-09-27T11:12:19;1.67;;;0.90;;
21305;SDS011;10812;51.838;5.838;2022-09-27T11:14:53;3.33;;;1.20;;
21305;SDS011;10812;51.838;5.838;2022-09-27T11:17:25;2.47;;;1.17;;
21305;SDS011;10812;51.838;5.838;2022-09-27T11:20:14;0.70;;;0.60;;
21305;SDS011;10812;51.838;5.838;2022-09-27T11:22:51;1.27;;;0.80;;
21305;SDS011;10812;51.838;5.838;2022-09-27T11:25:48;1.80;;;0.70;;
21305;SDS011;10812;51.838;5.838;2022-09-27T11:28:37;1.57;;;0.80;;
21305;SDS011;10812;51.838;5.838;2022-09-27T11:31:12;1.07;;;0.73;;
21305;SDS011;10812;51.838;5.838;2022-09-27T11:33:54;1.70;;;0.93;;
21305;SDS011;10812;51.838;5.838;2022-09-27T11:36:40;2.70;;;1.00;;
21305;SDS011;10812;51.838;5.838;2022-09-27T11:39:21;0.93;;;0.80;;
21305;SDS011;10812;51.838;5.838;2022-09-27T11:42:05;0.80;;;0.60;;
21305;SDS011;10812;51.838;5.838;2022-09-27T11:44:55;1.33;;;0.73;;
21305;SDS011;10812;51.838;5.838;2022-09-27T11:48:01;2.63;;;1.43;;
21305;SDS011;10812;51.838;5.838;2022-09-27T11:50:42;1.80;;;1.37;;
21305;SDS011;10812;51.838;5.838;2022-09-27T11:53:25;1.07;;;0.73;;
21305;SDS011;10812;51.838;5.838;2022-09-27T11:56:22;1.43;;;0.70;;
21305;SDS011;10812;51.838;5.838;2022-09-27T11:59:08;1.63;;;0.73;;
21305;SDS011;10812;51.838;5.838;2022-09-27T12:01:58;1.90;;;0.60;;
21305;SDS011;10812;51.838;5.838;2022-09-27T12:07:28;2.70;;;0.40;;
21305;SDS011;10812;51.838;5.838;2022-09-27T12:10:04;2.93;;;0.50;;
21305;SDS011;10812;51.838;5.838;2022-09-27T12:12:39;1.47;;;0.50;;
21305;SDS011;10812;51.838;5.838;2022-09-27T12:15:12;0.57;;;0.40;;
21305;SDS011;10812;51.838;5.838;2022-09-27T12:17:44;1.00;;;0.23;;
21305;SDS011;10812;51.838;5.838;2022-09-27T12:20:16;1.13;;;0.30;;
21305;SDS011;10812;51.838;5.838;2022-09-27T12:22:49;0.63;;;0.40;;
21305;SDS011;10812;51.838;5.838;2022-09-27T12:25:25;0.40;;;0.30;;
21305;SDS011;10812;51.838;5.838;2022-09-27T12:27:57;0.83;;;0.50;;
21305;SDS011;10812;51.838;5.838;2022-09-27T12:30:30;0.70;;;0.50;;
21305;SDS011;10812;51.838;5.838;2022-09-27T12:33:06;0.67;;;0.47;;
21305;SDS011;10812;51.838;5.838;2022-09-27T12:35:39;1.33;;;0.43;;
21305;SDS011;10812;51.838;5.838;2022-09-27T12:38:13;1.37;;;0.40;;
21305;SDS011;10812;51.838;5.838;2022-09-27T12:40:47;1.23;;;0.60;;
21305;SDS011;10812;51.838;5.838;2022-09-27T12:43:18;6.60;;;0.70;;
21305;SDS011;10812;51.838;5.838;2022-09-27T12:45:50;0.63;;;0.30;;
21305;SDS011;10812;51.838;5.838;2022-09-27T12:48:30;1.47;;;0.77;;
21305;SDS011;10812;51.838;5.838;2022-09-27T12:51:07;0.43;;;0.30;;
21305;SDS011;10812;51.838;5.838;2022-09-27T12:53:40;0.47;;;0.30;;
21305;SDS011;10812;51.838;5.838;2022-09-27T12:56:21;2.60;;;0.50;;
21305;SDS011;10812;51.838;5.838;2022-09-27T13:02:19;1.50;;;0.47;;
21305;SDS011;10812;51.838;5.838;2022-09-27T13:05:35;0.77;;;0.20;;
21305;SDS011;10812;51.838;5.838;2022-09-27T13:08:26;1.23;;;0.27;;
21305;SDS011;10812;51.838;5.838;2022-09-27T13:11:10;0.83;;;0.40;;
21305;SDS011;10812;51.838;5.838;2022-09-27T13:13:43;0.40;;;0.10;;
21305;SDS011;10812;51.838;5.838;2022-09-27T13:16:13;1.13;;;0.20;;
21305;SDS011;10812;51.838;5.838;2022-09-27T13:18:48;0.47;;;0.20;;
21305;SDS011;10812;51.838;5.838;2022-09-27T13:24:30;1.43;;;0.20;;
21305;SDS011;10812;51.838;5.838;2022-09-27T13:33:32;0.33;;;0.30;;
21305;SDS011;10812;51.838;5.838;2022-09-27T13:36:19;1.57;;;1.00;;
21305;SDS011;10812;51.838;5.838;2022-09-27T13:41:53;0.43;;;0.30;;
21305;SDS011;10812;51.838;5.838;2022-09-27T13:44:31;1.33;;;0.40;;
21305;SDS011;10812;51.838;5.838;2022-09-27T13:47:14;0.70;;;0.50;;
21305;SDS011;10812;51.838;5.838;2022-09-27T13:49:53;0.60;;;0.40;;
21305;SDS011;10812;51.838;5.838;2022-09-27T13:52:26;0.37;;;0.27;;
21305;SDS011;10812;51.838;5.838;2022-09-27T13:55:01;0.47;;;0.20;;
21305;SDS011;10812;51.838;5.838;2022-09-27T14:11:11;0.90;;;0.47;;
21305;SDS011;10812;51.838;5.838;2022-09-27T14:13:42;1.37;;;0.40;;
21305;SDS011;10812;51.838;5.838;2022-09-27T14:16:13;2.07;;;0.50;;
21305;SDS011;10812;51.838;5.838;2022-09-27T14:18:43;0.47;;;0.47;;
21305;SDS011;10812;51.838;5.838;2022-09-27T14:21:18;2.20;;;0.40;;
21305;SDS011;10812;51.838;5.838;2022-09-27T14:23:52;1.73;;;0.40;;
21305;SDS011;10812;51.838;5.838;2022-09-27T14:26:22;1.33;;;0.40;;
21305;SDS011;10812;51.838;5.838;2022-09-27T14:28:54;0.40;;;0.40;;
21305;SDS011;10812;51.838;5.838;2022-09-27T14:31:23;0.30;;;0.30;;
21305;SDS011;10812;51.838;5.838;2022-09-27T14:33:57;1.00;;;0.37;;
21305;SDS011;10812;51.838;5.838;2022-09-27T14:36:32;1.33;;;0.67;;
21305;SDS011;10812;51.838;5.838;2022-09-27T14:39:20;1.00;;;0.53;;
21305;SDS011;10812;51.838;5.838;2022-09-27T14:41:51;4.53;;;2.20;;
21305;SDS011;10812;51.838;5.838;2022-09-27T14:44:19;1.87;;;1.27;;
21305;SDS011;10812;51.838;5.838;2022-09-27T14:47:06;1.83;;;0.53;;
21305;SDS011;10812;51.838;5.838;2022-09-27T14:49:35;1.40;;;1.00;;
21305;SDS011;10812;51.838;5.838;2022-09-27T14:52:15;2.60;;;1.20;;
21305;SDS011;10812;51.838;5.838;2022-09-27T14:54:54;2.30;;;1.60;;
21305;SDS011;10812;51.838;5.838;2022-09-27T14:57:25;0.97;;;0.63;;
21305;SDS011;10812;51.838;5.838;2022-09-27T14:59:55;2.40;;;1.20;;
21305;SDS011;10812;51.838;5.838;2022-09-27T15:02:24;2.57;;;1.47;;
21305;SDS011;10812;51.838;5.838;2022-09-27T15:04:58;2.97;;;1.80;;
21305;SDS011;10812;51.838;5.838;2022-09-27T15:07:26;3.47;;;1.50;;
21305;SDS011;10812;51.838;5.838;2022-09-27T15:09:54;4.63;;;2.47;;
21305;SDS011;10812;51.838;5.838;2022-09-27T15:12:27;3.80;;;1.77;;
21305;SDS011;10812;51.838;5.838;2022-09-27T15:14:56;2.63;;;1.30;;
21305;SDS011;10812;51.838;5.838;2022-09-27T15:17:25;6.17;;;3.27;;
21305;SDS011;10812;51.838;5.838;2022-09-27T15:19:57;4.60;;;2.40;;
21305;SDS011;10812;51.838;5.838;2022-09-27T15:22:34;4.33;;;2.10;;
21305;SDS011;10812;51.838;5.838;2022-09-27T15:25:14;3.80;;;2.20;;
21305;SDS011;10812;51.838;5.838;2022-09-27T15:27:48;4.83;;;2.30;;
21305;SDS011;10812;51.838;5.838;2022-09-27T15:30:19;3.07;;;1.50;;
21305;SDS011;10812;51.838;5.838;2022-09-27T15:32:55;2.13;;;1.43;;
21305;SDS011;10812;51.838;5.838;2022-09-27T15:35:25;1.83;;;1.60;;
21305;SDS011;10812;51.838;5.838;2022-09-27T15:38:11;1.87;;;1.60;;
21305;SDS011;10812;51.838;5.838;2022-09-27T15:43:41;2.00;;;1.70;;
21305;SDS011;10812;51.838;5.838;2022-09-27T15:46:25;3.43;;;2.07;;
21305;SDS011;10812;51.838;5.838;2022-09-27T15:52:00;5.97;;;2.53;;
21305;SDS011;10812;51.838;5.838;2022-09-27T15:54:30;5.10;;;2.53;;
21305;SDS011;10812;51.838;5.838;2022-09-27T15:57:01;4.83;;;2.97;;
21305;SDS011;10812;51.838;5.838;2022-09-27T15:59:33;3.10;;;2.00;;
21305;SDS011;10812;51.838;5.838;2022-09-27T16:02:03;4.40;;;2.67;;
21305;SDS011;10812;51.838;5.838;2022-09-27T16:04:36;2.30;;;1.80;;
21305;SDS011;10812;51.838;5.838;2022-09-27T16:10:55;4.23;;;1.87;;
21305;SDS011;10812;51.838;5.838;2022-09-27T16:13:25;4.67;;;2.17;;
21305;SDS011;10812;51.838;5.838;2022-09-27T16:15:59;4.23;;;1.23;;
21305;SDS011;10812;51.838;5.838;2022-09-27T16:18:29;2.97;;;1.50;;
21305;SDS011;10812;51.838;5.838;2022-09-27T16:20:58;2.40;;;1.40;;
21305;SDS011;10812;51.838;5.838;2022-09-27T16:23:26;2.30;;;1.67;;
21305;SDS011;10812;51.838;5.838;2022-09-27T16:25:54;2.63;;;1.43;;